Sincerity Ace — 3FFD7 — position and weather

sailwx.info

Track history (hours):
 
Tides and Currents Weather Stations Pressure Air Temp Water Temp Dewpoint Dewpoint Depression Visibility Wind Speed Wind Dir Waves Ship Positions

Sincerity Ace

Last reported at 2015-Apr-19 17:33 UTC. Time now 2015-Apr-27 20:46 UTC.
Position N 34°36' E 141°14'.
Warning: this ship's position is 8 days out of date.

Length 200 m; draft 9.1 m.

Type: Cargo ship. MMSI: 351690000.

Date/timePositionNaut miles runAvg speedWind from/ knotsBaromVisibWave heightAir tempDewpointWater temp
2015-Apr-19 17:33N 34°36' E 141°14'1919.3
2015-Apr-19 16:33N 34°29' E 140°53'2219.7
2015-Apr-19 15:26N 34°21' E 140°28'1718.0
2015-Apr-19 14:30N 34°14' E 140°09'1717.6
2015-Apr-19 13:33N 34°06' E 139°51'1817.7
2015-Apr-19 12:33N 33°59' E 139°32'2317.6
2015-Apr-19 11:14N 33°52' E 139°05'  
2015-Apr-14 16:17N 34°41' E 139°38'1617.5
2015-Apr-14 15:23N 34°47' E 139°55'1417.4
2015-Apr-14 14:33N 34°53' E 140°11'1817.6
2015-Apr-14 13:32N 35°04' E 140°29'1716.9
2015-Apr-14 12:32N 35°15' E 140°45'2416.3
2015-Apr-14 11:04N 35°36' E 140°59'2516.3
2015-Apr-14 09:33N 36°00' E 140°56'1817.0
2015-Apr-14 08:28N 36°18' E 140°49'8 0.6
2015-Apr-13 19:23N 36°11' E 140°55'1518.2
2015-Apr-13 18:33N 35°57' E 141°00'1817.7
2015-Apr-13 17:33N 35°39' E 140°60'1919.0
2015-Apr-13 16:33N 35°22' E 140°49'1918.6
2015-Apr-13 15:33N 35°08' E 140°34'1818.3
2015-Apr-13 14:34N 34°59' E 140°15'1717.5
2015-Apr-13 13:34N 34°51' E 139°56'1515.1
2015-Apr-13 12:34N 35°00' E 139°42'1515.3
2015-Apr-13 11:34N 35°15' E 139°46'1211.6
2015-Apr-13 10:33N 35°27' E 139°47'1515.2
2015-Apr-13 09:33N 35°35' E 140°03'3 2.4
2015-Apr-13 08:31N 35°36' E 140°06'0 0.0
2015-Apr-13 07:31N 35°36' E 140°06'0 0.0
2015-Apr-13 06:31N 35°36' E 140°06'0 0.0
2015-Apr-13 05:19N 35°36' E 140°06'0 0.0
2015-Apr-13 04:31N 35°36' E 140°06'0 0.0
2015-Apr-13 03:13N 35°36' E 140°06'0 0.0
2015-Apr-13 02:07N 35°36' E 140°06'0 0.0
2015-Apr-13 01:31N 35°36' E 140°06'0 0.0
2015-Apr-13 00:25N 35°36' E 140°06'0 0.0
2015-Apr-12 23:13N 35°36' E 140°06'0 0.3
2015-Apr-12 22:33N 35°36' E 140°06'8 7.7
2015-Apr-12 21:33N 35°32' E 139°57'1111.4
2015-Apr-12 20:34N 35°25' E 139°47'1010.0
2015-Apr-12 19:34N 35°15' E 139°47'9 9.3
2015-Apr-12 18:34N 35°05' E 139°45'1110.8
2015-Apr-12 17:33N 34°55' E 139°42'1815.9
2015-Apr-12 16:26N 34°37' E 139°42'  
Track history (hours):
 
Tides and Currents Weather Stations Pressure Air Temp Water Temp Dewpoint Dewpoint Depression Visibility Wind Speed Wind Dir Waves Ship Positions

Sincerity Ace

Last reported at 2015-Apr-19 17:33 UTC. Time now 2015-Apr-27 20:46 UTC.
Position N 34°36' E 141°14'.
Warning: this ship's position is 8 days out of date.

Length 200 m; draft 9.1 m.

Type: Cargo ship. MMSI: 351690000.

Date/timePositionNaut miles runAvg speedWind from/ knotsBaromVisibWave heightAir tempDewpointWater temp
2015-Apr-19 17:33N 34°36' E 141°14'1919.3
2015-Apr-19 16:33N 34°29' E 140°53'2219.7
2015-Apr-19 15:26N 34°21' E 140°28'1718.0
2015-Apr-19 14:30N 34°14' E 140°09'1717.6
2015-Apr-19 13:33N 34°06' E 139°51'1817.7
2015-Apr-19 12:33N 33°59' E 139°32'2317.6
2015-Apr-19 11:14N 33°52' E 139°05'  
2015-Apr-14 16:17N 34°41' E 139°38'1617.5
2015-Apr-14 15:23N 34°47' E 139°55'1417.4
2015-Apr-14 14:33N 34°53' E 140°11'1817.6
2015-Apr-14 13:32N 35°04' E 140°29'1716.9
2015-Apr-14 12:32N 35°15' E 140°45'2416.3
2015-Apr-14 11:04N 35°36' E 140°59'2516.3
2015-Apr-14 09:33N 36°00' E 140°56'1817.0
2015-Apr-14 08:28N 36°18' E 140°49'8 0.6
2015-Apr-13 19:23N 36°11' E 140°55'1518.2
2015-Apr-13 18:33N 35°57' E 141°00'1817.7
2015-Apr-13 17:33N 35°39' E 140°60'1919.0
2015-Apr-13 16:33N 35°22' E 140°49'1918.6
2015-Apr-13 15:33N 35°08' E 140°34'1818.3
2015-Apr-13 14:34N 34°59' E 140°15'1717.5
2015-Apr-13 13:34N 34°51' E 139°56'1515.1
2015-Apr-13 12:34N 35°00' E 139°42'1515.3
2015-Apr-13 11:34N 35°15' E 139°46'1211.6
2015-Apr-13 10:33N 35°27' E 139°47'1515.2
2015-Apr-13 09:33N 35°35' E 140°03'3 2.4
2015-Apr-13 08:31N 35°36' E 140°06'0 0.0
2015-Apr-13 07:31N 35°36' E 140°06'0 0.0
2015-Apr-13 06:31N 35°36' E 140°06'0 0.0
2015-Apr-13 05:19N 35°36' E 140°06'0 0.0
2015-Apr-13 04:31N 35°36' E 140°06'0 0.0
2015-Apr-13 03:13N 35°36' E 140°06'0 0.0
2015-Apr-13 02:07N 35°36' E 140°06'0 0.0
2015-Apr-13 01:31N 35°36' E 140°06'0 0.0
2015-Apr-13 00:25N 35°36' E 140°06'0 0.0
2015-Apr-12 23:13N 35°36' E 140°06'0 0.3
2015-Apr-12 22:33N 35°36' E 140°06'8 7.7
2015-Apr-12 21:33N 35°32' E 139°57'1111.4
2015-Apr-12 20:34N 35°25' E 139°47'1010.0
2015-Apr-12 19:34N 35°15' E 139°47'9 9.3
2015-Apr-12 18:34N 35°05' E 139°45'1110.8
2015-Apr-12 17:33N 34°55' E 139°42'1815.9
2015-Apr-12 16:26N 34°37' E 139°42'  

Dump ship's entire track history